createdAt,value
2023-06-02T00:00:22.851Z,0.85
2023-06-02T00:02:55.162Z,0.52
2023-06-02T00:05:30.591Z,0.60
2023-06-02T00:08:04.032Z,1.08
2023-06-02T00:10:36.172Z,1.27
2023-06-02T00:13:08.943Z,0.90
2023-06-02T00:15:41.489Z,0.70
2023-06-02T00:18:13.829Z,0.98
2023-06-02T00:20:47.847Z,0.90
2023-06-02T00:23:20.794Z,0.70
2023-06-02T00:25:52.945Z,0.90
2023-06-02T00:28:25.153Z,0.70
2023-06-02T00:30:57.446Z,0.75
2023-06-02T00:33:29.575Z,0.60
2023-06-02T00:36:03.122Z,0.50
2023-06-02T00:38:35.225Z,0.57
2023-06-02T00:41:07.317Z,0.88
2023-06-02T00:43:39.347Z,0.80
2023-06-02T00:46:11.615Z,0.93
2023-06-02T00:48:44.394Z,0.52
2023-06-02T00:51:18.412Z,0.82
2023-06-02T00:53:51.397Z,0.68
2023-06-02T00:56:24.449Z,0.65
2023-06-02T00:58:56.580Z,0.40
2023-06-02T01:01:30.382Z,0.63
2023-06-02T01:04:03.092Z,0.40
2023-06-02T01:06:38.956Z,1.02
2023-06-02T01:09:13.413Z,0.80
2023-06-02T01:11:46.707Z,0.55
2023-06-02T01:14:18.850Z,0.68
2023-06-02T01:16:51.168Z,0.70
2023-06-02T01:19:27.196Z,0.70
2023-06-02T01:22:02.775Z,0.63
2023-06-02T01:24:39.836Z,0.70
2023-06-02T01:27:16.793Z,0.70
2023-06-02T01:29:49.046Z,0.50
2023-06-02T01:32:26.596Z,0.73
2023-06-02T01:35:05.068Z,0.73
2023-06-02T01:37:44.096Z,0.63
2023-06-02T01:40:19.242Z,0.77
2023-06-02T01:42:53.203Z,0.82
2023-06-02T01:45:28.990Z,0.73
2023-06-02T01:48:05.007Z,0.95
2023-06-02T01:50:38.452Z,0.90
2023-06-02T01:53:10.686Z,0.80
2023-06-02T01:55:44.025Z,0.50
2023-06-02T01:58:16.340Z,0.80
2023-06-02T02:00:48.363Z,0.85
2023-06-02T02:03:20.435Z,0.68
2023-06-02T02:05:52.444Z,1.08
2023-06-02T02:08:24.410Z,0.60
2023-06-02T02:10:57.770Z,0.80
2023-06-02T02:13:29.736Z,0.50
2023-06-02T02:16:01.835Z,0.85
2023-06-02T02:18:34.001Z,0.63
2023-06-02T02:21:06.260Z,0.80
2023-06-02T02:23:38.342Z,0.75
2023-06-02T02:26:11.806Z,0.40
2023-06-02T02:28:43.806Z,1.13
2023-06-02T02:31:16.124Z,0.63
2023-06-02T02:33:49.029Z,0.68
2023-06-02T02:36:22.406Z,0.77
2023-06-02T02:38:54.806Z,0.68
2023-06-02T02:41:28.293Z,0.60
2023-06-02T02:44:00.453Z,0.85
2023-06-02T02:46:32.832Z,1.38
2023-06-02T02:49:05.084Z,0.90
2023-06-02T02:51:37.257Z,0.75
2023-06-02T02:54:09.289Z,0.90
2023-06-02T02:56:42.724Z,1.08
2023-06-02T02:59:15.244Z,0.55
2023-06-02T03:01:50.001Z,0.95
2023-06-02T03:04:27.164Z,0.55
2023-06-02T03:07:00.221Z,0.55
2023-06-02T03:09:33.889Z,0.82
2023-06-02T03:12:09.393Z,0.90
2023-06-02T03:14:42.517Z,0.77
2023-06-02T03:17:14.834Z,0.88
2023-06-02T03:19:47.346Z,0.90
2023-06-02T03:22:19.421Z,0.55
2023-06-02T03:24:51.995Z,0.68
2023-06-02T03:27:28.710Z,0.90
2023-06-02T03:30:03.701Z,0.70
2023-06-02T03:32:39.947Z,0.82
2023-06-02T03:35:12.244Z,0.73
2023-06-02T03:37:46.827Z,0.60
2023-06-02T03:40:19.263Z,1.02
2023-06-02T03:42:52.740Z,1.00
2023-06-02T03:45:24.846Z,0.60
2023-06-02T03:47:57.911Z,0.90
2023-06-02T03:50:30.930Z,0.43
2023-06-02T03:53:03.679Z,0.40
2023-06-02T03:55:35.788Z,0.73
2023-06-02T03:58:09.797Z,0.68
2023-06-02T04:00:42.818Z,0.90
2023-06-02T04:03:14.991Z,0.73
2023-06-02T04:05:47.632Z,0.75
2023-06-02T04:08:20.193Z,0.45
2023-06-02T04:10:52.281Z,0.68
2023-06-02T04:13:26.150Z,0.93
2023-06-02T04:15:58.462Z,0.60
2023-06-02T04:18:32.189Z,0.98
2023-06-02T04:21:06.555Z,0.93
2023-06-02T04:23:38.707Z,0.60
2023-06-02T04:26:11.681Z,0.95
2023-06-02T04:28:46.432Z,0.90
2023-06-02T04:31:27.919Z,0.60
2023-06-02T04:34:02.691Z,0.80
2023-06-02T04:36:36.177Z,0.40
2023-06-02T04:39:09.386Z,0.75
2023-06-02T04:41:42.237Z,0.77
2023-06-02T04:44:17.922Z,0.50
2023-06-02T04:46:51.731Z,0.73
2023-06-02T04:49:24.840Z,0.55
2023-06-02T04:51:56.886Z,0.40
2023-06-02T04:54:29.496Z,0.40
2023-06-02T04:57:06.473Z,0.90
2023-06-02T04:59:41.194Z,0.52
2023-06-02T05:02:14.521Z,0.52
2023-06-02T05:04:46.802Z,0.60
2023-06-02T05:07:18.967Z,0.70
2023-06-02T05:09:51.009Z,0.47
2023-06-02T05:12:23.926Z,0.68
2023-06-02T05:14:57.306Z,0.70
2023-06-02T05:17:29.518Z,0.55
2023-06-02T05:20:05.453Z,0.30
2023-06-02T05:22:37.587Z,0.60
2023-06-02T05:25:11.787Z,0.90
2023-06-02T05:27:45.386Z,0.55
2023-06-02T05:30:19.157Z,0.45
2023-06-02T05:32:51.759Z,0.40
2023-06-02T05:35:23.899Z,0.52
2023-06-02T05:37:56.968Z,0.43
2023-06-02T05:40:29.090Z,0.50
2023-06-02T05:43:01.754Z,0.52
2023-06-02T05:45:36.542Z,0.40
2023-06-02T05:48:08.729Z,0.52
2023-06-02T05:50:44.294Z,0.38
2023-06-02T05:53:17.358Z,0.32
2023-06-02T05:55:49.394Z,0.30
2023-06-02T05:58:22.478Z,0.40
2023-06-02T06:00:56.634Z,0.30
2023-06-02T06:03:28.817Z,0.50
2023-06-02T06:06:01.859Z,0.45
2023-06-02T06:08:34.427Z,0.40
2023-06-02T06:11:06.640Z,0.50
2023-06-02T06:13:39.156Z,0.30
2023-06-02T06:16:12.805Z,0.57
2023-06-02T06:18:45.694Z,0.70
2023-06-02T06:21:17.756Z,0.77
2023-06-02T06:23:49.934Z,0.40
2023-06-02T06:26:22.199Z,0.35
2023-06-02T06:28:54.353Z,0.50
2023-06-02T06:31:29.316Z,0.38
2023-06-02T06:34:01.656Z,0.38
2023-06-02T06:36:35.207Z,0.40
2023-06-02T06:39:08.029Z,0.40
2023-06-02T06:41:43.142Z,0.28
2023-06-02T06:44:25.200Z,0.20
2023-06-02T06:46:59.493Z,0.50
2023-06-02T06:49:32.624Z,0.20
2023-06-02T06:52:05.005Z,0.20
2023-06-02T06:54:37.075Z,0.43
2023-06-02T06:57:11.048Z,0.70
2023-06-02T06:59:43.908Z,0.35
2023-06-02T07:02:17.438Z,0.50
2023-06-02T07:04:49.425Z,0.40
2023-06-02T07:07:21.768Z,0.50
2023-06-02T07:09:54.501Z,0.30
2023-06-02T07:12:26.560Z,0.30
2023-06-02T07:14:58.580Z,0.30
2023-06-02T07:17:31.976Z,0.25
2023-06-02T07:20:04.623Z,0.38
2023-06-02T07:22:36.742Z,0.45
2023-06-02T07:25:09.700Z,0.40
2023-06-02T07:27:41.725Z,0.30
2023-06-02T07:30:14.092Z,0.45
2023-06-02T07:32:47.557Z,0.30
2023-06-02T07:35:19.628Z,0.50
2023-06-02T07:37:52.652Z,0.43
2023-06-02T07:40:24.972Z,0.65
2023-06-02T07:45:29.854Z,0.65
2023-06-02T07:48:03.503Z,0.47
2023-06-02T07:50:35.580Z,0.60
2023-06-02T07:53:07.570Z,0.55
2023-06-02T07:55:39.640Z,0.50
2023-06-02T07:58:11.971Z,0.70
2023-06-02T08:00:44.013Z,0.57
2023-06-02T08:03:17.469Z,0.50
2023-06-02T08:05:49.915Z,0.38
2023-06-02T08:08:21.918Z,0.47
2023-06-02T08:10:58.092Z,0.57
2023-06-02T08:13:31.837Z,0.50
2023-06-02T08:16:26.804Z,0.50
2023-06-02T08:18:57.628Z,0.47
2023-06-02T08:21:30.111Z,0.52
2023-06-02T08:24:02.162Z,0.47
2023-06-02T08:26:34.191Z,0.60
2023-06-02T08:29:06.876Z,0.40
2023-06-02T08:31:40.635Z,0.38
2023-06-02T08:34:14.340Z,0.60
2023-06-02T08:36:46.983Z,0.40
2023-06-02T08:39:19.104Z,0.32
2023-06-02T08:41:52.275Z,0.40
2023-06-02T08:44:24.501Z,0.50
2023-06-02T08:46:58.284Z,0.82
2023-06-02T08:49:35.590Z,0.75
2023-06-02T08:52:11.594Z,0.50
2023-06-02T08:54:44.721Z,0.65
2023-06-02T08:57:21.503Z,0.73
2023-06-02T08:59:53.476Z,0.38
2023-06-02T09:02:26.179Z,0.60
2023-06-02T09:05:00.419Z,0.68
2023-06-02T09:07:33.174Z,0.40
2023-06-02T09:10:06.152Z,0.30
2023-06-02T09:12:55.871Z,0.63
2023-06-02T09:15:27.888Z,0.63
2023-06-02T09:18:11.853Z,0.57
2023-06-02T09:20:49.111Z,0.30
2023-06-02T09:23:21.752Z,0.40
2023-06-02T09:25:53.781Z,0.63
2023-06-02T09:28:26.007Z,0.63
2023-06-02T09:31:05.570Z,0.45
2023-06-02T09:33:37.980Z,0.70
2023-06-02T09:36:32.554Z,0.38
2023-06-02T09:39:04.958Z,0.45
2023-06-02T09:41:37.528Z,0.60
2023-06-02T09:44:14.024Z,0.35
2023-06-02T09:46:46.432Z,0.45
2023-06-02T09:49:18.781Z,0.57
2023-06-02T09:51:52.323Z,0.88
2023-06-02T09:54:24.640Z,0.55
2023-06-02T09:56:56.657Z,0.85
2023-06-02T09:59:30.704Z,0.40
2023-06-02T10:02:03.641Z,0.52
2023-06-02T10:04:35.916Z,0.47
2023-06-02T10:07:21.376Z,0.30
2023-06-02T10:10:09.527Z,0.70
2023-06-02T10:12:58.089Z,0.60
2023-06-02T10:15:45.550Z,0.60
2023-06-02T10:18:34.113Z,0.63
2023-06-02T10:21:13.015Z,0.80
2023-06-02T10:23:57.621Z,0.50
2023-06-02T10:26:49.200Z,0.38
2023-06-02T10:29:22.877Z,0.40
2023-06-02T10:31:55.210Z,0.75
2023-06-02T10:34:40.101Z,0.70
2023-06-02T10:37:16.073Z,0.90
2023-06-02T10:39:52.820Z,0.47
2023-06-02T10:42:26.069Z,0.45
2023-06-02T10:45:31.460Z,0.50
2023-06-02T10:48:39.459Z,0.47
2023-06-02T10:51:12.218Z,0.40
2023-06-02T10:54:15.578Z,0.50
2023-06-02T10:56:49.053Z,0.40
2023-06-02T10:59:36.103Z,0.60
2023-06-02T11:02:08.227Z,0.60
2023-06-02T11:04:44.215Z,0.32
2023-06-02T11:07:22.838Z,0.52
2023-06-02T11:09:56.707Z,0.40
2023-06-02T11:13:06.988Z,0.52
2023-06-02T11:15:38.977Z,0.43
2023-06-02T11:18:40.650Z,0.60
2023-06-02T11:21:22.785Z,0.40
2023-06-02T11:23:56.644Z,0.40
2023-06-02T11:26:28.764Z,0.20
2023-06-02T11:29:17.739Z,0.20
2023-06-02T11:31:49.909Z,0.45
2023-06-02T11:34:23.133Z,0.60
2023-06-02T11:36:55.270Z,0.43
2023-06-02T11:39:27.304Z,0.40
2023-06-02T11:41:59.353Z,0.45
2023-06-02T11:44:32.964Z,0.40
2023-06-02T11:47:05.611Z,0.30
2023-06-02T11:49:38.356Z,0.10
2023-06-02T11:52:11.469Z,0.40
2023-06-02T11:54:51.696Z,0.40
2023-06-02T11:57:28.667Z,0.38
2023-06-02T12:00:20.602Z,0.60
2023-06-02T12:02:58.573Z,0.43
2023-06-02T12:05:32.465Z,0.28
2023-06-02T12:08:08.884Z,0.30
2023-06-02T12:10:41.694Z,0.55
2023-06-02T12:13:24.033Z,0.38
2023-06-02T12:16:17.666Z,0.40
2023-06-02T12:18:49.932Z,0.43
2023-06-02T12:21:25.109Z,0.45
2023-06-02T12:23:58.754Z,0.65
2023-06-02T12:26:39.968Z,0.60
2023-06-02T12:29:12.972Z,0.70
2023-06-02T12:31:46.471Z,0.80
2023-06-02T12:34:18.494Z,1.08
2023-06-02T12:36:50.605Z,0.73
2023-06-02T12:39:22.716Z,0.63
2023-06-02T12:41:54.728Z,0.30
2023-06-02T12:44:27.734Z,0.40
2023-06-02T12:47:01.386Z,0.88
2023-06-02T12:49:33.878Z,0.60
2023-06-02T12:52:06.096Z,0.55
2023-06-02T12:54:38.059Z,0.82
2023-06-02T12:57:10.173Z,1.52
2023-06-02T12:59:42.193Z,0.82
2023-06-02T13:02:15.721Z,0.73
2023-06-02T13:04:47.684Z,0.80
2023-06-02T13:07:19.887Z,0.73
2023-06-02T13:09:51.880Z,0.57
2023-06-02T13:12:23.940Z,0.98
2023-06-02T13:14:55.987Z,0.85
2023-06-02T13:17:29.391Z,1.20
2023-06-02T13:20:01.476Z,1.10
2023-06-02T13:22:33.978Z,0.82
2023-06-02T13:25:06.668Z,1.85
2023-06-02T13:27:42.899Z,0.80
2023-06-02T13:30:17.465Z,2.17
2023-06-02T13:32:50.894Z,1.67
2023-06-02T13:35:22.998Z,2.20
2023-06-02T13:37:55.031Z,0.50
2023-06-02T13:40:27.024Z,0.20
2023-06-02T13:42:59.138Z,0.65
2023-06-02T13:45:31.132Z,0.20
2023-06-02T13:48:06.562Z,0.55
2023-06-02T13:50:39.834Z,0.40
2023-06-02T13:53:11.816Z,2.20
2023-06-02T13:55:43.817Z,2.60
2023-06-02T13:58:15.892Z,2.13
2023-06-02T14:00:47.950Z,0.52
2023-06-02T14:03:21.392Z,0.40
2023-06-02T14:05:53.544Z,0.85
2023-06-02T14:08:25.579Z,1.23
2023-06-02T14:10:57.586Z,1.45
2023-06-02T14:13:29.619Z,0.50
2023-06-02T14:16:01.800Z,0.25
2023-06-02T14:18:35.390Z,0.22
2023-06-02T14:21:07.356Z,0.43
2023-06-02T14:23:39.757Z,0.60
2023-06-02T14:26:11.784Z,0.40
2023-06-02T14:28:43.839Z,0.38
2023-06-02T14:31:16.464Z,0.50
2023-06-02T14:33:49.929Z,0.60
2023-06-02T14:36:22.417Z,0.82
2023-06-02T14:38:54.616Z,0.30
2023-06-02T14:41:27.063Z,0.47
2023-06-02T14:43:59.039Z,0.30
2023-06-02T14:46:31.236Z,1.02
2023-06-02T14:49:04.582Z,0.57
2023-06-02T14:51:37.954Z,0.45
2023-06-02T14:54:09.960Z,0.60
2023-06-02T14:56:41.947Z,0.70
2023-06-02T14:59:18.343Z,0.15
2023-06-02T15:01:50.598Z,0.43
2023-06-02T15:04:23.951Z,0.43
2023-06-02T15:06:55.920Z,0.20
2023-06-02T15:09:27.985Z,0.30
2023-06-02T15:11:59.950Z,0.30
2023-06-02T15:14:31.945Z,0.43
2023-06-02T15:17:04.232Z,0.38
2023-06-02T15:19:38.327Z,0.70
2023-06-02T15:22:10.629Z,0.80
2023-06-02T15:24:42.948Z,7.28
2023-06-02T15:27:15.105Z,6.82
2023-06-02T15:29:47.145Z,1.00
2023-06-02T15:32:19.138Z,1.00
2023-06-02T15:34:52.578Z,1.27
2023-06-02T15:37:25.459Z,2.10
2023-06-02T15:39:57.506Z,0.68
2023-06-02T15:42:29.507Z,0.90
2023-06-02T15:45:02.037Z,1.42
2023-06-02T15:47:34.996Z,0.70
2023-06-02T15:50:09.313Z,1.20
2023-06-02T15:52:41.693Z,1.00
2023-06-02T15:55:13.723Z,0.90
2023-06-02T15:57:45.737Z,0.52
2023-06-02T16:00:18.386Z,0.90
2023-06-02T16:02:50.678Z,0.25
2023-06-02T16:05:24.223Z,0.50
2023-06-02T16:07:56.254Z,0.95
2023-06-02T16:10:28.457Z,0.60
2023-06-02T16:13:00.485Z,0.55
2023-06-02T16:15:32.900Z,0.40
2023-06-02T16:18:04.998Z,0.47
2023-06-02T16:20:38.441Z,0.50
2023-06-02T16:23:10.439Z,0.30
2023-06-02T16:25:42.442Z,0.45
2023-06-02T16:28:14.558Z,0.50
2023-06-02T16:30:46.536Z,1.50
2023-06-02T16:33:18.766Z,0.95
2023-06-02T16:35:52.222Z,2.80
2023-06-02T16:38:24.294Z,1.58
2023-06-02T16:40:56.256Z,0.65
2023-06-02T16:43:28.248Z,0.30
2023-06-02T16:46:00.571Z,0.80
2023-06-02T16:48:32.649Z,1.20
2023-06-02T16:51:07.163Z,1.08
2023-06-02T16:53:39.871Z,0.93
2023-06-02T16:56:11.890Z,0.40
2023-06-02T16:58:43.950Z,0.77
2023-06-02T17:01:16.030Z,1.05
2023-06-02T17:03:48.068Z,1.20
2023-06-02T17:06:21.483Z,1.17
2023-06-02T17:08:55.027Z,1.27
2023-06-02T17:11:27.312Z,1.20
2023-06-02T17:13:59.318Z,0.90
2023-06-02T17:16:31.451Z,1.10
2023-06-02T17:19:05.079Z,0.60
2023-06-02T17:21:38.529Z,0.60
2023-06-02T17:24:11.221Z,0.40
2023-06-02T17:26:43.909Z,2.88
2023-06-02T17:29:16.584Z,1.00
2023-06-02T17:31:49.328Z,1.95
2023-06-02T17:34:21.432Z,0.50
2023-06-02T17:36:56.200Z,0.88
2023-06-02T17:39:28.246Z,0.60
2023-06-02T17:42:00.190Z,1.55
2023-06-02T17:44:32.170Z,7.57
2023-06-02T17:47:04.677Z,9.98
2023-06-02T17:49:36.838Z,7.32
2023-06-02T17:52:10.288Z,3.70
2023-06-02T17:54:42.387Z,1.35
2023-06-02T17:57:14.572Z,1.25
2023-06-02T17:59:47.013Z,0.90
2023-06-02T18:02:19.654Z,0.93
2023-06-02T18:04:53.781Z,1.80
2023-06-02T18:07:27.897Z,1.15
2023-06-02T18:09:59.901Z,1.30
2023-06-02T18:12:32.791Z,0.80
2023-06-02T18:15:06.659Z,0.45
2023-06-02T18:17:38.659Z,0.40
2023-06-02T18:20:11.595Z,2.00
2023-06-02T18:22:46.452Z,1.10
2023-06-02T18:25:18.436Z,8.30
2023-06-02T18:27:50.424Z,1.95
2023-06-02T18:30:22.782Z,1.20
2023-06-02T18:32:54.791Z,1.40
2023-06-02T18:35:26.922Z,0.70
2023-06-02T18:38:00.282Z,3.38
2023-06-02T18:40:32.257Z,2.08
2023-06-02T18:43:04.448Z,1.15
2023-06-02T18:45:36.438Z,1.92
2023-06-02T18:48:09.316Z,1.75
2023-06-02T18:50:41.567Z,3.97
2023-06-02T18:53:14.950Z,5.20
2023-06-02T18:55:46.932Z,1.55
2023-06-02T18:58:18.914Z,2.20
2023-06-02T19:00:50.963Z,2.10
2023-06-02T19:03:23.132Z,3.33
2023-06-02T19:05:55.248Z,1.95
2023-06-02T19:08:28.635Z,1.33
2023-06-02T19:11:00.844Z,1.55
2023-06-02T19:13:33.415Z,1.42
2023-06-02T19:16:06.024Z,0.65
2023-06-02T19:18:42.712Z,0.90
2023-06-02T19:21:15.069Z,1.00
2023-06-02T19:23:48.695Z,0.70
2023-06-02T19:26:25.811Z,0.57
2023-06-02T19:28:57.904Z,0.80
2023-06-02T19:31:29.927Z,2.63
2023-06-02T19:34:03.110Z,3.92
2023-06-02T19:36:38.737Z,1.77
2023-06-02T19:39:12.492Z,0.60
2023-06-02T19:41:44.688Z,1.23
2023-06-02T19:44:16.812Z,0.93
2023-06-02T19:46:48.773Z,1.27
2023-06-02T19:49:23.024Z,2.30
2023-06-02T19:51:56.314Z,3.20
2023-06-02T19:54:30.691Z,1.00
2023-06-02T19:57:02.693Z,0.88
2023-06-02T19:59:36.948Z,0.80
2023-06-02T20:02:08.997Z,2.67
2023-06-02T20:04:41.010Z,1.50
2023-06-02T20:07:13.152Z,1.35
2023-06-02T20:09:49.337Z,2.40
2023-06-02T20:12:21.765Z,2.25
2023-06-02T20:14:53.767Z,2.00
2023-06-02T20:17:27.038Z,2.28
2023-06-02T20:19:59.257Z,1.48
2023-06-02T20:22:32.012Z,1.75
2023-06-02T20:25:06.938Z,1.83
2023-06-02T20:27:38.966Z,1.35
2023-06-02T20:30:11.414Z,1.35
2023-06-02T20:32:43.448Z,1.50
2023-06-02T20:35:16.059Z,1.75
2023-06-02T20:37:48.027Z,2.08
2023-06-02T20:40:21.388Z,1.40
2023-06-02T20:42:53.369Z,1.08
2023-06-02T20:45:25.634Z,1.63
2023-06-02T20:47:57.720Z,1.20
2023-06-02T20:50:30.006Z,1.45
2023-06-02T20:53:01.966Z,1.30
2023-06-02T20:55:36.116Z,1.45
2023-06-02T20:58:08.108Z,1.38
2023-06-02T21:00:40.440Z,1.20
2023-06-02T21:03:12.508Z,0.88
2023-06-02T21:05:44.615Z,1.33
2023-06-02T21:08:16.599Z,1.60
2023-06-02T21:10:50.030Z,1.60
2023-06-02T21:13:22.005Z,1.73
2023-06-02T21:15:54.050Z,1.48
2023-06-02T21:18:26.071Z,2.00
2023-06-02T21:20:58.144Z,1.70
2023-06-02T21:23:30.133Z,2.10
2023-06-02T21:26:03.704Z,1.90
2023-06-02T21:28:35.734Z,2.50
2023-06-02T21:31:07.793Z,2.25
2023-06-02T21:33:40.474Z,2.05
2023-06-02T21:36:12.545Z,1.90
2023-06-02T21:38:44.513Z,1.95
2023-06-02T21:41:18.228Z,1.27
2023-06-02T21:43:50.210Z,1.20
2023-06-02T21:46:22.359Z,1.38
2023-06-02T21:48:54.342Z,0.90
2023-06-02T21:51:27.902Z,1.00
2023-06-02T21:54:00.691Z,1.10
2023-06-02T21:56:35.924Z,1.20
2023-06-02T21:59:07.958Z,1.05
2023-06-02T22:01:40.064Z,1.00
2023-06-02T22:04:12.106Z,0.80
2023-06-02T22:06:44.684Z,1.25
2023-06-02T22:09:16.717Z,0.90
2023-06-02T22:11:51.004Z,1.50
2023-06-02T22:14:22.994Z,0.93
2023-06-02T22:16:55.049Z,1.23
2023-06-02T22:19:27.060Z,1.35
2023-06-02T22:21:59.069Z,0.98
2023-06-02T22:24:31.132Z,0.90
2023-06-02T22:27:04.831Z,1.00
2023-06-02T22:29:36.769Z,0.90
2023-06-02T22:32:08.803Z,1.10
2023-06-02T22:34:40.830Z,0.90
2023-06-02T22:37:12.859Z,1.05
2023-06-02T22:39:44.843Z,1.20
2023-06-02T22:42:18.290Z,1.30
2023-06-02T22:44:50.387Z,0.98
2023-06-02T22:47:22.427Z,1.40
2023-06-02T22:49:54.439Z,1.30
2023-06-02T22:52:26.542Z,1.08
2023-06-02T22:54:58.502Z,1.00
2023-06-02T22:57:32.313Z,0.80
2023-06-02T23:00:05.266Z,0.80
2023-06-02T23:02:37.379Z,2.10
2023-06-02T23:05:09.718Z,1.30
2023-06-02T23:07:41.727Z,1.20
2023-06-02T23:10:15.975Z,1.55
2023-06-02T23:12:49.537Z,2.03
2023-06-02T23:15:21.764Z,0.88
2023-06-02T23:17:53.878Z,1.80
2023-06-02T23:20:25.866Z,0.90
2023-06-02T23:22:57.862Z,1.23
2023-06-02T23:25:30.008Z,1.00
2023-06-02T23:28:03.733Z,1.33
2023-06-02T23:30:35.758Z,1.58
2023-06-02T23:33:08.314Z,1.30
2023-06-02T23:35:40.357Z,1.63
2023-06-02T23:38:12.465Z,1.27
2023-06-02T23:40:44.447Z,1.25
2023-06-02T23:43:17.883Z,1.73
2023-06-02T23:45:49.925Z,1.60
2023-06-02T23:48:22.014Z,1.38
2023-06-02T23:50:53.982Z,1.50
2023-06-02T23:53:26.924Z,1.75
2023-06-02T23:55:59.105Z,1.30
2023-06-02T23:58:32.594Z,1.15
